createdAt,value
2019-02-26T00:00:47.100Z,11.90
2019-02-26T00:01:48.495Z,12.70
2019-02-26T00:02:46.703Z,12.70
2019-02-26T00:03:44.962Z,12.70
2019-02-26T00:04:45.182Z,15.40
2019-02-26T00:05:47.839Z,14.50
2019-02-26T00:06:49.151Z,13.50
2019-02-26T00:07:49.073Z,15.10
2019-02-26T00:08:49.228Z,15.70
2019-02-26T00:09:46.280Z,13.70
2019-02-26T00:10:46.502Z,15.90
2019-02-26T00:11:46.733Z,14.10
2019-02-26T00:12:46.951Z,17.20
2019-02-26T00:13:48.595Z,15.40
2019-02-26T00:14:47.551Z,18.40
2019-02-26T00:15:48.431Z,15.50
2019-02-26T00:16:49.393Z,12.10
2019-02-26T00:17:48.551Z,14.80
2019-02-26T00:18:48.268Z,12.30
2019-02-26T00:19:48.494Z,12.90
2019-02-26T00:20:48.717Z,13.30
2019-02-26T00:21:50.123Z,11.90
2019-02-26T00:22:49.157Z,14.20
2019-02-26T00:23:51.462Z,14.40
2019-02-26T00:24:49.626Z,14.70
2019-02-26T00:25:49.816Z,18.20
2019-02-26T00:26:50.050Z,15.90
2019-02-26T00:27:51.867Z,14.20
2019-02-26T00:28:50.482Z,16.40
2019-02-26T00:29:51.418Z,15.40
2019-02-26T00:30:50.918Z,13.30
2019-02-26T00:31:52.833Z,16.20
2019-02-26T00:32:53.111Z,15.80
2019-02-26T00:33:51.579Z,13.90
2019-02-26T00:34:53.221Z,17.20
2019-02-26T00:35:52.022Z,14.50
2019-02-26T00:36:52.242Z,15.40
2019-02-26T00:37:53.483Z,16.00
2019-02-26T00:38:52.683Z,16.10
2019-02-26T00:39:54.147Z,17.40
2019-02-26T00:40:54.969Z,16.10
2019-02-26T00:41:54.051Z,17.60
2019-02-26T00:42:55.027Z,18.00
2019-02-26T00:43:55.352Z,17.00
2019-02-26T00:44:55.911Z,17.50
2019-02-26T00:45:57.987Z,15.70
2019-02-26T00:46:55.717Z,19.30
2019-02-26T00:47:54.680Z,16.00
2019-02-26T00:48:56.378Z,14.50
2019-02-26T00:49:55.121Z,17.30
2019-02-26T00:50:56.597Z,19.60
2019-02-26T00:51:55.564Z,19.90
2019-02-26T00:52:57.089Z,17.00
2019-02-26T00:53:57.527Z,16.60
2019-02-26T00:54:57.787Z,17.80
2019-02-26T00:55:58.433Z,17.40
2019-02-26T00:56:59.024Z,17.00
2019-02-26T00:57:58.860Z,17.70
2019-02-26T00:58:57.120Z,18.90
2019-02-26T00:59:57.339Z,19.90
2019-02-26T01:00:57.572Z,16.60
2019-02-26T01:01:59.383Z,17.00
2019-02-26T01:02:58.000Z,18.30
2019-02-26T01:03:58.221Z,19.30
2019-02-26T01:04:58.441Z,19.30
2019-02-26T01:05:59.205Z,18.30
2019-02-26T01:06:59.462Z,16.70
2019-02-26T01:07:59.100Z,16.80
2019-02-26T01:09:01.138Z,18.80
2019-02-26T01:09:59.538Z,18.10
2019-02-26T01:11:01.533Z,18.10
2019-02-26T01:11:59.983Z,17.50
2019-02-26T01:13:01.442Z,18.00
2019-02-26T01:14:00.417Z,16.80
2019-02-26T01:15:02.583Z,16.70
2019-02-26T01:16:00.859Z,15.30
2019-02-26T01:17:01.079Z,17.20
2019-02-26T01:18:03.093Z,16.60
2019-02-26T01:19:01.518Z,17.40
2019-02-26T01:20:05.347Z,16.90
2019-02-26T01:21:04.200Z,16.70
2019-02-26T01:22:02.176Z,17.60
2019-02-26T01:23:02.399Z,15.60
2019-02-26T01:24:04.240Z,16.90
2019-02-26T01:25:02.836Z,21.10
2019-02-26T01:26:03.056Z,15.20
2019-02-26T01:27:03.278Z,17.30
2019-02-26T01:28:03.500Z,16.80
2019-02-26T01:29:03.719Z,16.90
2019-02-26T01:30:03.965Z,18.90
2019-02-26T01:31:05.109Z,17.40
2019-02-26T01:32:04.378Z,18.20
2019-02-26T01:33:05.602Z,18.10
2019-02-26T01:34:04.828Z,20.00
2019-02-26T01:35:06.040Z,18.00
2019-02-26T01:36:05.270Z,22.20
2019-02-26T01:37:06.068Z,19.60
2019-02-26T01:38:05.703Z,20.90
2019-02-26T01:39:09.300Z,17.70
2019-02-26T01:40:09.378Z,21.10
2019-02-26T01:41:08.660Z,15.50
2019-02-26T01:42:06.582Z,16.00
2019-02-26T01:43:06.803Z,19.10
2019-02-26T01:44:08.760Z,18.70
2019-02-26T01:45:07.246Z,17.90
2019-02-26T01:46:09.434Z,17.20
2019-02-26T01:47:07.689Z,17.50
2019-02-26T01:48:09.209Z,19.20
2019-02-26T01:49:08.129Z,17.50
2019-02-26T01:50:09.333Z,18.90
2019-02-26T01:51:08.571Z,19.00
2019-02-26T01:52:10.570Z,18.20
2019-02-26T01:53:09.014Z,19.20
2019-02-26T01:54:10.355Z,18.80
2019-02-26T01:55:09.468Z,18.80
2019-02-26T01:56:09.670Z,18.00
2019-02-26T01:57:09.891Z,17.00
2019-02-26T01:58:10.112Z,17.70
2019-02-26T01:59:10.333Z,16.80
2019-02-26T02:00:10.647Z,16.30
2019-02-26T02:01:12.351Z,19.70
2019-02-26T02:02:14.780Z,16.60
2019-02-26T02:03:11.170Z,18.20
2019-02-26T02:04:12.807Z,14.70
2019-02-26T02:05:11.612Z,14.40
2019-02-26T02:06:13.592Z,14.10
2019-02-26T02:07:12.056Z,17.10
2019-02-26T02:08:13.259Z,16.60
2019-02-26T02:09:13.998Z,17.10
2019-02-26T02:10:12.707Z,18.90
2019-02-26T02:11:12.956Z,17.00
2019-02-26T02:12:13.153Z,22.20
2019-02-26T02:13:13.375Z,18.00
2019-02-26T02:14:15.417Z,15.00
2019-02-26T02:15:17.400Z,18.90
2019-02-26T02:16:14.035Z,17.20
2019-02-26T02:17:14.262Z,18.00
2019-02-26T02:18:14.475Z,14.50
2019-02-26T02:19:18.031Z,17.90
2019-02-26T02:20:16.467Z,23.20
2019-02-26T02:21:15.137Z,25.20
2019-02-26T02:22:16.839Z,20.40
2019-02-26T02:23:15.575Z,23.20
2019-02-26T02:24:17.557Z,19.50
2019-02-26T02:25:16.018Z,16.10
2019-02-26T02:26:16.241Z,18.30
2019-02-26T02:27:19.513Z,17.80
2019-02-26T02:28:19.359Z,18.00
2019-02-26T02:29:19.054Z,15.70
2019-02-26T02:30:22.659Z,16.00
2019-02-26T02:31:17.343Z,18.70
2019-02-26T02:32:17.566Z,16.30
2019-02-26T02:33:23.610Z,16.30
2019-02-26T02:34:18.008Z,15.40
2019-02-26T02:35:19.320Z,17.60
2019-02-26T02:36:20.512Z,15.30
2019-02-26T02:37:24.085Z,15.00
2019-02-26T02:38:20.489Z,16.40
2019-02-26T02:39:20.956Z,14.70
2019-02-26T02:40:19.336Z,17.80
2019-02-26T02:41:19.550Z,16.00
2019-02-26T02:42:22.039Z,15.50
2019-02-26T02:43:22.966Z,15.10
2019-02-26T02:44:21.060Z,16.60
2019-02-26T02:45:21.186Z,15.10
2019-02-26T02:46:20.657Z,16.20
2019-02-26T02:47:20.881Z,13.40
2019-02-26T02:48:21.097Z,15.60
2019-02-26T02:49:21.320Z,15.70
2019-02-26T02:50:21.533Z,15.70
2019-02-26T02:51:21.750Z,14.70
2019-02-26T02:52:24.133Z,14.20
2019-02-26T02:53:24.029Z,14.30
2019-02-26T02:54:23.632Z,14.90
2019-02-26T02:55:22.643Z,14.40
2019-02-26T02:56:22.860Z,15.40
2019-02-26T02:57:24.196Z,14.50
2019-02-26T02:58:26.000Z,13.60
2019-02-26T02:59:23.525Z,11.20
2019-02-26T03:00:26.058Z,13.60
2019-02-26T03:01:27.956Z,13.20
2019-02-26T03:02:24.184Z,13.50
2019-02-26T03:03:24.405Z,13.80
2019-02-26T03:04:27.881Z,13.00
2019-02-26T03:05:24.847Z,12.10
2019-02-26T03:06:27.305Z,14.00
2019-02-26T03:07:28.801Z,13.80
2019-02-26T03:08:25.506Z,15.10
2019-02-26T03:09:25.728Z,12.00
2019-02-26T03:10:28.502Z,13.00
2019-02-26T03:11:26.168Z,15.20
2019-02-26T03:12:26.390Z,16.00
2019-02-26T03:13:27.984Z,13.20
2019-02-26T03:14:26.832Z,12.30
2019-02-26T03:15:29.196Z,14.60
2019-02-26T03:16:27.275Z,10.90
2019-02-26T03:17:27.494Z,13.30
2019-02-26T03:18:27.718Z,13.90
2019-02-26T03:19:29.621Z,13.20
2019-02-26T03:20:30.802Z,13.50
2019-02-26T03:21:30.503Z,12.30
2019-02-26T03:22:28.597Z,11.90
2019-02-26T03:23:28.817Z,13.40
2019-02-26T03:24:31.418Z,12.20
2019-02-26T03:25:29.311Z,12.00
2019-02-26T03:26:29.482Z,13.90
2019-02-26T03:27:31.155Z,11.20
2019-02-26T03:28:34.897Z,11.40
2019-02-26T03:29:30.137Z,10.40
2019-02-26T03:30:33.868Z,13.10
2019-02-26T03:31:35.120Z,11.60
2019-02-26T03:32:30.799Z,11.70
2019-02-26T03:33:31.023Z,10.60
2019-02-26T03:34:31.252Z,11.70
2019-02-26T03:35:31.461Z,12.70
2019-02-26T03:36:34.240Z,11.40
2019-02-26T03:37:34.032Z,10.10
2019-02-26T03:38:32.127Z,11.80
2019-02-26T03:39:32.348Z,11.70
2019-02-26T03:40:34.085Z,11.60
2019-02-26T03:41:32.792Z,16.20
2019-02-26T03:42:33.836Z,10.10
2019-02-26T03:43:34.173Z,12.70
2019-02-26T03:44:33.455Z,11.20
2019-02-26T03:45:33.682Z,10.60
2019-02-26T03:46:33.900Z,11.90
2019-02-26T03:47:34.134Z,13.50
2019-02-26T03:48:34.341Z,11.90
2019-02-26T03:49:34.564Z,11.30
2019-02-26T03:50:34.783Z,10.80
2019-02-26T03:51:39.168Z,12.40
2019-02-26T03:52:35.224Z,11.80
2019-02-26T03:53:36.279Z,14.30
2019-02-26T03:54:37.871Z,12.00
2019-02-26T03:55:36.696Z,11.60
2019-02-26T03:56:36.116Z,12.70
2019-02-26T03:57:41.083Z,11.90
2019-02-26T03:58:36.551Z,11.80
2019-02-26T03:59:36.771Z,9.90
2019-02-26T04:00:38.612Z,9.80
2019-02-26T04:01:37.220Z,12.90
2019-02-26T04:02:39.457Z,11.70
2019-02-26T04:03:39.444Z,12.10
2019-02-26T04:04:37.875Z,10.10
2019-02-26T04:05:38.097Z,11.90
2019-02-26T04:06:38.985Z,13.00
2019-02-26T04:07:38.541Z,11.20
2019-02-26T04:08:38.759Z,11.60
2019-02-26T04:09:41.886Z,10.50
2019-02-26T04:10:39.202Z,12.90
2019-02-26T04:11:44.703Z,10.80
2019-02-26T04:12:42.249Z,11.50
2019-02-26T04:13:41.060Z,11.90
2019-02-26T04:14:40.088Z,13.30
2019-02-26T04:15:40.307Z,10.80
2019-02-26T04:16:43.106Z,11.90
2019-02-26T04:17:42.236Z,10.10
2019-02-26T04:18:40.969Z,10.60
2019-02-26T04:19:43.635Z,13.00
2019-02-26T04:20:44.349Z,14.60
2019-02-26T04:21:41.632Z,11.50
2019-02-26T04:22:43.057Z,10.70
2019-02-26T04:23:44.047Z,11.60
2019-02-26T04:24:42.305Z,10.20
2019-02-26T04:25:42.527Z,12.50
2019-02-26T04:26:42.744Z,13.50
2019-02-26T04:27:44.183Z,12.70
2019-02-26T04:28:44.977Z,11.70
2019-02-26T04:29:44.115Z,12.10
2019-02-26T04:30:44.475Z,12.30
2019-02-26T04:31:46.396Z,13.40
2019-02-26T04:32:46.149Z,13.50
2019-02-26T04:33:44.293Z,11.70
2019-02-26T04:34:44.504Z,11.90
2019-02-26T04:35:45.723Z,9.20
2019-02-26T04:36:47.096Z,9.60
2019-02-26T04:37:45.165Z,12.10
2019-02-26T04:38:46.465Z,10.80
2019-02-26T04:39:47.632Z,11.20
2019-02-26T04:40:45.831Z,11.60
2019-02-26T04:41:46.052Z,11.20
2019-02-26T04:42:46.270Z,11.60
2019-02-26T04:43:46.489Z,12.80
2019-02-26T04:44:50.412Z,14.40
2019-02-26T04:45:46.933Z,11.50
2019-02-26T04:46:47.176Z,12.50
2019-02-26T04:47:49.577Z,12.90
2019-02-26T04:48:47.594Z,12.60
2019-02-26T04:49:47.828Z,11.80
2019-02-26T04:50:48.044Z,13.90
2019-02-26T04:51:50.363Z,12.70
2019-02-26T04:52:48.481Z,13.50
2019-02-26T04:53:51.009Z,15.20
2019-02-26T04:54:48.915Z,12.20
2019-02-26T04:55:49.138Z,11.50
2019-02-26T04:56:50.962Z,13.90
2019-02-26T04:57:51.218Z,10.60
2019-02-26T04:58:49.805Z,15.00
2019-02-26T04:59:50.024Z,12.10
2019-02-26T05:00:50.245Z,13.20
2019-02-26T05:01:52.307Z,14.00
2019-02-26T05:02:50.690Z,10.60
2019-02-26T05:03:50.910Z,11.10
2019-02-26T05:04:51.130Z,12.00
2019-02-26T05:05:53.932Z,13.30
2019-02-26T05:06:51.572Z,9.90
2019-02-26T05:07:51.796Z,12.80
2019-02-26T05:08:52.005Z,9.90
2019-02-26T05:09:53.830Z,13.60
2019-02-26T05:10:54.374Z,13.40
2019-02-26T05:11:52.673Z,12.00
2019-02-26T05:12:56.709Z,12.70
2019-02-26T05:13:53.112Z,11.00
2019-02-26T05:14:53.337Z,10.50
2019-02-26T05:15:53.570Z,12.50
2019-02-26T05:16:53.775Z,12.40
2019-02-26T05:17:53.994Z,11.20
2019-02-26T05:18:55.030Z,11.20
2019-02-26T05:19:54.437Z,13.40
2019-02-26T05:20:54.668Z,12.20
2019-02-26T05:21:56.727Z,11.20
2019-02-26T05:22:57.669Z,9.80
2019-02-26T05:23:57.502Z,11.70
2019-02-26T05:24:55.540Z,10.80
2019-02-26T05:25:59.757Z,11.30
2019-02-26T05:26:55.985Z,13.40
2019-02-26T05:27:56.196Z,10.90
2019-02-26T05:28:56.413Z,11.60
2019-02-26T05:29:56.633Z,10.80
2019-02-26T05:30:56.852Z,10.30
2019-02-26T05:31:58.829Z,13.60
2019-02-26T05:33:00.248Z,13.00
2019-02-26T05:33:59.944Z,10.50
2019-02-26T05:34:57.734Z,9.40
2019-02-26T05:35:57.956Z,12.30
2019-02-26T05:36:59.795Z,12.30
2019-02-26T05:38:00.936Z,11.70
2019-02-26T05:39:00.327Z,10.80
2019-02-26T05:39:58.838Z,12.80
2019-02-26T05:40:59.058Z,11.30
2019-02-26T05:42:01.268Z,11.20
2019-02-26T05:43:01.474Z,13.80
2019-02-26T05:44:01.857Z,13.20
2019-02-26T05:45:03.001Z,12.80
2019-02-26T05:46:03.611Z,9.90
2019-02-26T05:47:01.657Z,11.10
2019-02-26T05:48:00.599Z,10.20
2019-02-26T05:49:02.901Z,11.50
2019-02-26T05:50:02.651Z,11.20
2019-02-26T05:51:03.530Z,11.90
2019-02-26T05:52:02.233Z,15.00
2019-02-26T05:53:04.690Z,11.40
2019-02-26T05:54:05.234Z,9.80
2019-02-26T05:55:02.141Z,12.80
2019-02-26T05:56:02.361Z,14.50
2019-02-26T05:57:04.784Z,14.00
2019-02-26T05:58:02.799Z,13.50
2019-02-26T05:59:06.835Z,12.10
2019-02-26T06:00:03.243Z,12.30
2019-02-26T06:01:03.461Z,10.80
2019-02-26T06:02:03.679Z,9.70
2019-02-26T06:03:06.153Z,12.00
2019-02-26T06:04:04.904Z,12.70
2019-02-26T06:05:04.339Z,11.00
2019-02-26T06:06:04.562Z,11.50
2019-02-26T06:07:04.831Z,11.30
2019-02-26T06:08:05.003Z,11.20
2019-02-26T06:09:07.577Z,12.40
2019-02-26T06:10:05.445Z,14.90
2019-02-26T06:11:05.664Z,11.50
2019-02-26T06:12:05.895Z,10.20
2019-02-26T06:13:07.606Z,11.70
2019-02-26T06:14:09.504Z,11.90
2019-02-26T06:15:08.115Z,11.10
2019-02-26T06:16:07.584Z,11.70
2019-02-26T06:17:07.767Z,15.10
2019-02-26T06:18:07.209Z,15.70
2019-02-26T06:19:08.499Z,13.10
2019-02-26T06:20:08.921Z,11.60
2019-02-26T06:21:07.870Z,13.90
2019-02-26T06:22:11.594Z,16.60
2019-02-26T06:23:08.322Z,14.10
2019-02-26T06:24:08.531Z,13.40
2019-02-26T06:25:13.937Z,16.10
2019-02-26T06:26:13.280Z,13.40
2019-02-26T06:27:13.001Z,13.60
2019-02-26T06:28:10.564Z,12.80
2019-02-26T06:29:09.627Z,13.30
2019-02-26T06:30:12.278Z,12.50
2019-02-26T06:31:12.186Z,11.80
2019-02-26T06:32:12.038Z,12.70
2019-02-26T06:33:12.199Z,12.70
2019-02-26T06:34:11.894Z,13.50
2019-02-26T06:35:13.103Z,12.30
2019-02-26T06:36:11.130Z,11.90
2019-02-26T06:37:11.720Z,12.40
2019-02-26T06:38:11.742Z,15.00
2019-02-26T06:39:11.793Z,12.40
2019-02-26T06:40:12.018Z,11.90
2019-02-26T06:41:12.232Z,13.70
2019-02-26T06:42:14.411Z,10.90
2019-02-26T06:43:12.677Z,12.10
2019-02-26T06:44:12.898Z,13.20
2019-02-26T06:45:13.943Z,11.40
2019-02-26T06:46:14.160Z,10.20
2019-02-26T06:47:13.549Z,12.20
2019-02-26T06:48:16.975Z,11.40
2019-02-26T06:49:14.984Z,10.50
2019-02-26T06:50:18.010Z,10.00
2019-02-26T06:51:14.430Z,10.00
2019-02-26T06:52:16.268Z,11.50
2019-02-26T06:53:16.638Z,8.70
2019-02-26T06:54:15.475Z,10.70
2019-02-26T06:55:15.369Z,11.00
2019-02-26T06:56:16.026Z,11.00
2019-02-26T06:57:15.807Z,11.80
2019-02-26T06:58:16.045Z,12.00
2019-02-26T06:59:16.238Z,11.60
2019-02-26T07:00:18.680Z,11.90
2019-02-26T07:01:18.779Z,12.30
2019-02-26T07:02:16.894Z,13.90
2019-02-26T07:03:17.115Z,19.30
2019-02-26T07:04:17.336Z,16.70
2019-02-26T07:05:17.557Z,15.30
2019-02-26T07:06:20.618Z,13.60
2019-02-26T07:07:17.997Z,17.90
2019-02-26T07:08:18.981Z,15.30
2019-02-26T07:09:20.100Z,19.10
2019-02-26T07:10:23.595Z,19.10
2019-02-26T07:11:18.888Z,16.40
2019-02-26T07:12:19.989Z,15.30
2019-02-26T07:13:19.325Z,11.40
2019-02-26T07:14:19.541Z,14.50
2019-02-26T07:15:19.763Z,12.00
2019-02-26T07:16:20.627Z,14.30
2019-02-26T07:17:20.201Z,12.80
2019-02-26T07:18:20.421Z,13.90
2019-02-26T07:19:20.641Z,12.40
2019-02-26T07:20:20.866Z,13.90
2019-02-26T07:21:21.097Z,10.30
2019-02-26T07:22:21.307Z,12.60
2019-02-26T07:23:21.530Z,15.00
2019-02-26T07:24:23.009Z,13.80
2019-02-26T07:25:21.973Z,16.70
2019-02-26T07:26:23.113Z,15.00
2019-02-26T07:27:22.417Z,13.70
2019-02-26T07:28:24.515Z,17.30
2019-02-26T07:29:22.856Z,14.20
2019-02-26T07:30:23.084Z,14.90
2019-02-26T07:31:24.351Z,14.20
2019-02-26T07:32:24.619Z,14.90
2019-02-26T07:33:23.746Z,14.90
2019-02-26T07:34:25.081Z,13.70
2019-02-26T07:35:24.191Z,14.30
2019-02-26T07:36:27.627Z,11.50
2019-02-26T07:37:24.640Z,13.60
2019-02-26T07:38:25.189Z,10.50
2019-02-26T07:39:25.080Z,11.50
2019-02-26T07:40:25.304Z,11.60
2019-02-26T07:41:27.827Z,16.40
2019-02-26T07:42:25.790Z,11.70
2019-02-26T07:43:26.019Z,12.70
2019-02-26T07:44:28.337Z,14.30
2019-02-26T07:45:27.432Z,15.00
2019-02-26T07:46:26.679Z,18.20
2019-02-26T07:47:28.868Z,15.30
2019-02-26T07:48:28.924Z,14.40
2019-02-26T07:49:27.349Z,13.60
2019-02-26T07:50:31.401Z,12.00
2019-02-26T07:51:29.421Z,14.30
2019-02-26T07:52:28.925Z,14.90
2019-02-26T07:53:28.234Z,16.10
2019-02-26T07:54:28.985Z,16.40
2019-02-26T07:55:30.788Z,15.20
2019-02-26T07:56:30.680Z,17.40
2019-02-26T07:57:29.128Z,16.60
2019-02-26T07:58:30.929Z,17.40
2019-02-26T07:59:32.365Z,18.90
2019-02-26T08:00:30.524Z,15.70
2019-02-26T08:01:30.017Z,14.50
2019-02-26T08:02:32.088Z,18.80
2019-02-26T08:03:30.459Z,17.10
2019-02-26T08:04:32.307Z,16.30
2019-02-26T08:05:30.902Z,16.30
2019-02-26T08:06:31.654Z,16.20
2019-02-26T08:07:31.346Z,19.20
2019-02-26T08:08:31.569Z,16.40
2019-02-26T08:09:31.791Z,19.80
2019-02-26T08:10:35.137Z,17.00
2019-02-26T08:11:32.236Z,18.40
2019-02-26T08:12:35.123Z,17.30
2019-02-26T08:13:34.102Z,17.40
2019-02-26T08:14:32.900Z,20.30
2019-02-26T08:15:35.147Z,17.20
2019-02-26T08:16:33.358Z,16.40
2019-02-26T08:17:33.570Z,14.60
2019-02-26T08:18:33.788Z,15.10
2019-02-26T08:19:34.942Z,15.90
2019-02-26T08:20:35.674Z,19.40
2019-02-26T08:21:34.457Z,16.00
2019-02-26T08:22:36.270Z,18.90
2019-02-26T08:23:34.904Z,15.20
2019-02-26T08:24:35.124Z,15.80
2019-02-26T08:25:35.345Z,17.80
2019-02-26T08:26:35.566Z,14.50
2019-02-26T08:27:37.732Z,14.40
2019-02-26T08:28:38.372Z,16.50
2019-02-26T08:29:36.329Z,15.50
2019-02-26T08:30:40.244Z,13.40
2019-02-26T08:31:36.682Z,17.90
2019-02-26T08:32:39.075Z,13.60
2019-02-26T08:33:37.126Z,12.90
2019-02-26T08:34:39.786Z,15.50
2019-02-26T08:35:37.576Z,13.80
2019-02-26T08:36:37.789Z,14.30
2019-02-26T08:37:38.014Z,14.80
2019-02-26T08:38:38.290Z,12.00
2019-02-26T08:39:38.764Z,14.20
2019-02-26T08:40:38.685Z,15.50
2019-02-26T08:41:38.913Z,14.70
2019-02-26T08:42:39.128Z,11.50
2019-02-26T08:43:42.161Z,12.80
2019-02-26T08:44:39.573Z,14.00
2019-02-26T08:45:39.799Z,13.60
2019-02-26T08:46:42.171Z,12.00
2019-02-26T08:47:40.247Z,12.50
2019-02-26T08:48:41.411Z,12.20
2019-02-26T08:49:42.645Z,12.50
2019-02-26T08:50:42.252Z,14.60
2019-02-26T08:51:41.139Z,12.20
2019-02-26T08:52:41.357Z,10.90
2019-02-26T08:53:41.578Z,12.70
2019-02-26T08:54:41.807Z,12.50
2019-02-26T08:55:42.027Z,13.20
2019-02-26T08:56:42.247Z,10.70
2019-02-26T08:57:42.473Z,14.20
2019-02-26T08:58:43.632Z,14.80
2019-02-26T08:59:45.448Z,11.40
2019-02-26T09:00:43.144Z,14.60
2019-02-26T09:01:43.366Z,15.40
2019-02-26T09:02:45.492Z,16.80
2019-02-26T09:03:43.819Z,12.90
2019-02-26T09:04:45.169Z,14.40
2019-02-26T09:05:44.262Z,13.80
2019-02-26T09:06:44.482Z,12.80
2019-02-26T09:07:45.608Z,15.80
2019-02-26T09:08:44.931Z,15.20
2019-02-26T09:09:47.529Z,11.80
2019-02-26T09:10:46.936Z,12.90
2019-02-26T09:11:45.606Z,13.70
2019-02-26T09:12:46.753Z,15.20
2019-02-26T09:13:46.054Z,14.70
2019-02-26T09:14:48.115Z,14.80
2019-02-26T09:15:46.501Z,13.60
2019-02-26T09:16:49.769Z,15.10
2019-02-26T09:17:46.950Z,16.90
2019-02-26T09:18:47.174Z,15.10
2019-02-26T09:19:47.444Z,16.40
2019-02-26T09:20:47.644Z,13.80
2019-02-26T09:21:49.891Z,13.80
2019-02-26T09:22:50.712Z,14.10
2019-02-26T09:23:49.880Z,12.90
2019-02-26T09:24:49.438Z,14.70
2019-02-26T09:25:51.449Z,16.80
2019-02-26T09:26:49.488Z,14.80
2019-02-26T09:27:49.214Z,15.80
2019-02-26T09:28:50.059Z,13.70
2019-02-26T09:29:51.452Z,14.30
2019-02-26T09:30:49.882Z,18.10
2019-02-26T09:31:50.152Z,15.50
2019-02-26T09:32:52.406Z,17.50
2019-02-26T09:33:50.555Z,19.70
2019-02-26T09:34:52.026Z,18.10
2019-02-26T09:35:52.139Z,20.20
2019-02-26T09:36:53.042Z,27.50
2019-02-26T09:37:53.294Z,21.10
2019-02-26T09:38:51.679Z,18.90
2019-02-26T09:39:52.439Z,20.50
2019-02-26T09:40:52.895Z,19.60
2019-02-26T09:41:52.351Z,19.20
2019-02-26T09:42:55.125Z,19.50
2019-02-26T09:43:52.795Z,21.30
2019-02-26T09:44:54.852Z,18.50
2019-02-26T09:45:53.242Z,21.90
2019-02-26T09:46:54.878Z,20.50
2019-02-26T09:47:55.866Z,21.40
2019-02-26T09:48:53.916Z,20.70
2019-02-26T09:49:56.034Z,22.00
2019-02-26T09:50:54.377Z,25.00
2019-02-26T09:51:56.728Z,25.20
2019-02-26T09:52:56.665Z,19.30
2019-02-26T09:53:56.596Z,21.40
2019-02-26T09:54:55.309Z,21.40
2019-02-26T09:55:55.485Z,18.60
2019-02-26T09:56:55.707Z,18.80
2019-02-26T09:57:55.935Z,17.40
2019-02-26T09:58:56.159Z,16.00
2019-02-26T09:59:58.174Z,16.70
2019-02-26T10:00:56.609Z,18.10
2019-02-26T10:01:58.793Z,17.60
2019-02-26T10:02:57.063Z,20.40
2019-02-26T10:03:58.461Z,16.20
2019-02-26T10:04:57.507Z,17.10
2019-02-26T10:05:57.996Z,18.40
2019-02-26T10:06:57.956Z,18.00
2019-02-26T10:08:00.443Z,18.40
2019-02-26T10:08:58.404Z,17.70
2019-02-26T10:10:00.455Z,18.80
2019-02-26T10:11:00.190Z,16.90
2019-02-26T10:11:59.090Z,16.60
2019-02-26T10:13:01.950Z,14.80
2019-02-26T10:13:59.534Z,13.90
2019-02-26T10:15:02.426Z,14.60
2019-02-26T10:16:01.967Z,17.10
2019-02-26T10:17:00.227Z,14.80
2019-02-26T10:18:01.943Z,16.30
2019-02-26T10:19:00.657Z,16.90
2019-02-26T10:20:01.923Z,11.90
2019-02-26T10:21:01.108Z,10.80
2019-02-26T10:22:03.551Z,12.90
2019-02-26T10:23:04.335Z,11.10
2019-02-26T10:24:02.037Z,11.60
2019-02-26T10:25:02.015Z,10.90
2019-02-26T10:26:03.445Z,12.90
2019-02-26T10:27:03.713Z,12.80
2019-02-26T10:28:05.758Z,12.10
2019-02-26T10:29:04.523Z,11.50
2019-02-26T10:30:07.183Z,9.60
2019-02-26T10:31:04.863Z,10.60
2019-02-26T10:32:03.592Z,10.20
2019-02-26T10:33:03.816Z,9.90
2019-02-26T10:34:07.867Z,10.70
2019-02-26T10:35:04.635Z,11.60
2019-02-26T10:36:05.397Z,10.30
2019-02-26T10:37:04.715Z,11.00
2019-02-26T10:38:07.669Z,11.70
2019-02-26T10:39:07.306Z,10.20
2019-02-26T10:40:06.838Z,10.50
2019-02-26T10:41:05.621Z,11.80
2019-02-26T10:42:05.848Z,12.90
2019-02-26T10:43:06.073Z,10.90
2019-02-26T10:44:06.300Z,12.80
2019-02-26T10:45:06.524Z,12.00
2019-02-26T10:46:06.746Z,12.50
2019-02-26T10:47:08.740Z,11.40
2019-02-26T10:48:07.194Z,13.10
2019-02-26T10:49:07.418Z,11.60
2019-02-26T10:50:07.642Z,13.50
2019-02-26T10:51:07.860Z,10.60
2019-02-26T10:52:10.925Z,10.40
2019-02-26T10:53:10.596Z,12.40
2019-02-26T10:54:12.247Z,12.80
2019-02-26T10:55:12.686Z,10.00
2019-02-26T10:56:09.025Z,12.30
2019-02-26T10:57:11.235Z,13.90
2019-02-26T10:58:12.117Z,13.20
2019-02-26T10:59:12.591Z,12.90
2019-02-26T11:00:10.856Z,13.50
2019-02-26T11:01:10.113Z,14.70
2019-02-26T11:02:10.336Z,14.00
2019-02-26T11:03:12.958Z,12.30
2019-02-26T11:04:10.802Z,12.70
2019-02-26T11:05:11.932Z,14.20
2019-02-26T11:06:14.494Z,15.30
2019-02-26T11:07:13.633Z,13.30
2019-02-26T11:08:11.690Z,12.10
2019-02-26T11:09:14.281Z,11.20
2019-02-26T11:10:14.497Z,11.80
2019-02-26T11:11:12.942Z,15.40
2019-02-26T11:12:12.594Z,12.70
2019-02-26T11:13:14.847Z,14.30
2019-02-26T11:14:17.366Z,13.90
2019-02-26T11:15:13.215Z,11.30
2019-02-26T11:16:17.076Z,11.70
2019-02-26T11:17:13.684Z,11.50
2019-02-26T11:18:15.137Z,11.70
2019-02-26T11:19:14.123Z,10.00
2019-02-26T11:20:14.353Z,11.60
2019-02-26T11:21:14.609Z,19.90
2019-02-26T11:22:18.105Z,15.20
2019-02-26T11:23:16.248Z,13.00
2019-02-26T11:24:15.262Z,11.50
2019-02-26T11:25:17.943Z,12.30
2019-02-26T11:26:18.080Z,10.20
2019-02-26T11:27:17.283Z,13.80
2019-02-26T11:28:16.165Z,11.40
2019-02-26T11:29:16.391Z,11.60
2019-02-26T11:30:18.269Z,12.80
2019-02-26T11:31:20.496Z,10.30
2019-02-26T11:32:17.112Z,10.20
2019-02-26T11:33:17.411Z,10.00
2019-02-26T11:34:17.558Z,13.00
2019-02-26T11:35:19.699Z,13.70
2019-02-26T11:36:18.016Z,11.80
2019-02-26T11:37:20.137Z,11.20
2019-02-26T11:38:19.719Z,14.30
2019-02-26T11:39:18.704Z,11.70
2019-02-26T11:40:20.313Z,12.40
2019-02-26T11:41:19.164Z,10.30
2019-02-26T11:42:21.257Z,12.60
2019-02-26T11:43:20.890Z,11.00
2019-02-26T11:44:22.153Z,10.60
2019-02-26T11:45:20.070Z,10.60
2019-02-26T11:46:22.550Z,11.40
2019-02-26T11:47:20.669Z,11.40
2019-02-26T11:48:23.120Z,14.80
2019-02-26T11:49:21.784Z,12.80
2019-02-26T11:50:21.189Z,10.20
2019-02-26T11:51:21.419Z,10.30
2019-02-26T11:52:21.648Z,13.70
2019-02-26T11:53:21.856Z,12.10
2019-02-26T11:54:22.083Z,14.50
2019-02-26T11:55:23.551Z,10.90
2019-02-26T11:56:25.144Z,13.70
2019-02-26T11:57:22.786Z,14.50
2019-02-26T11:58:24.280Z,11.10
2019-02-26T11:59:23.215Z,10.10
2019-02-26T12:00:25.644Z,10.10
2019-02-26T12:01:23.671Z,10.20
2019-02-26T12:02:27.156Z,9.20
2019-02-26T12:03:25.426Z,6.90
2019-02-26T12:04:25.010Z,5.80
2019-02-26T12:05:31.378Z,7.80
2019-02-26T12:06:24.805Z,5.90
2019-02-26T12:07:27.249Z,6.30
2019-02-26T12:08:25.912Z,5.60
2019-02-26T12:09:25.492Z,5.40
2019-02-26T12:10:27.095Z,4.60
2019-02-26T12:11:25.949Z,4.80
2019-02-26T12:12:28.259Z,5.60
2019-02-26T12:13:27.713Z,5.60
2019-02-26T12:14:26.645Z,6.20
2019-02-26T12:15:29.702Z,5.70
2019-02-26T12:16:28.885Z,5.60
2019-02-26T12:17:27.360Z,6.60
2019-02-26T12:18:27.585Z,6.70
2019-02-26T12:19:28.329Z,7.20
2019-02-26T12:20:28.039Z,8.10
2019-02-26T12:21:29.940Z,8.30
2019-02-26T12:22:29.876Z,7.50
2019-02-26T12:23:28.723Z,9.10
2019-02-26T12:24:31.097Z,8.10
2019-02-26T12:25:29.175Z,9.90
2019-02-26T12:26:30.200Z,9.20
2019-02-26T12:27:29.634Z,7.30
2019-02-26T12:28:34.160Z,8.50
2019-02-26T12:29:30.095Z,8.20
2019-02-26T12:30:31.975Z,6.70
2019-02-26T12:31:31.815Z,9.50
2019-02-26T12:32:30.782Z,9.30
2019-02-26T12:33:32.488Z,6.60
2019-02-26T12:34:31.237Z,7.60
2019-02-26T12:35:33.395Z,6.90
2019-02-26T12:36:32.665Z,5.70
2019-02-26T12:37:31.924Z,9.80
2019-02-26T12:38:36.428Z,8.60
2019-02-26T12:39:32.378Z,7.00
2019-02-26T12:40:32.620Z,7.70
2019-02-26T12:41:35.897Z,6.50
2019-02-26T12:42:33.065Z,6.10
2019-02-26T12:43:36.456Z,6.10
2019-02-26T12:44:35.530Z,6.20
2019-02-26T12:45:35.100Z,6.50
2019-02-26T12:46:33.982Z,6.00
2019-02-26T12:47:34.243Z,5.40
2019-02-26T12:48:37.138Z,8.20
2019-02-26T12:49:36.515Z,6.50
2019-02-26T12:50:36.757Z,5.80
2019-02-26T12:51:35.436Z,5.90
2019-02-26T12:52:35.363Z,4.70
2019-02-26T12:53:36.240Z,5.20
2019-02-26T12:54:37.732Z,6.60
2019-02-26T12:55:38.469Z,5.40
2019-02-26T12:56:37.323Z,4.50
2019-02-26T12:57:36.519Z,5.40